Terminal Aerodrome Forecast
Issued by NWS Sioux Falls, SD

Home | Current Version | Previous Version | Text Only | Print | Product List | Glossary On
Versions: 1 2 3 4 5 6 7 8 9 10 11 12 13 14 15 16 17 18 19 20 21
000
FTUS43 KFSD 311720
TAFFSD
TAF
KFSD 311720Z 3118/0118 05012KT 4SM BR OVC004
     FM312300 05015KT 3SM -SN OVC008
     FM010100 04014KT 2SM -SN OVC006
     FM010300 03015KT 3/4SM -SN BR OVC004
      TEMPO 0106/0109 1/2SM SN
     FM011400 36018G25KT 2SM -SN OVC005=

USA.gov is the U.S. government's official web portal to all federal, state and local government web resources and services.